Temp     Hi    Low   Out    Dew  Wind  Wind   Wind    Hi    Hi   Wind   Heat    THW                Rain    Heat    Cool    In     In    In     In     In   In Air   Temp  Wind  Wind    ISS   Arc.
  Date    Time     Out   Temp   Temp   Hum    Pt. Speed   Dir    Run Speed   Dir  Chill  Index  Index   Bar    Rain  Rate    D-D     D-D    Temp   Hum    Dew   Heat    EMC Density    2nd  Samp   Tx   Recept  Int.
----------------------------------------------------------------------------------------------------------------------------------------------------------------------------------------------------------------------
24/01/20 12:10a   16.3   16.3   16.2    85   13.8   0.0   ---   0.00   0.0   ---   16.3   16.4   16.4  1002.1  0.00   0.0   0.014   0.000   26.2    39   11.1   25.7   7.47 1.1515    66.7     0    2      0.0   10 
24/01/20 12:20a   16.2   16.3   16.2    85   13.6   0.0   ---   0.00   0.0   ---   16.2   16.3   16.3  1002.4  0.00   0.0   0.015   0.000   26.1    39   11.0   25.6   7.47 1.1524    66.7     0    2      0.0   10 
24/01/20 12:30a   16.2   16.2   16.2    85   13.6   0.0   ---   0.00   0.0   ---   16.2   16.3   16.3  1002.5  0.00   0.0   0.015   0.000   25.8    40   11.2   25.3   7.58 1.1532    66.7     0    2      0.0   10 
24/01/20 12:40a   16.1   16.2   16.1    85   13.6   0.0   ---   0.00   0.0   ---   16.1   16.2   16.2  1002.5  0.00   0.0   0.015   0.000   25.8    40   11.2   25.3   7.58 1.1532    66.7     0    2      0.0   10 
24/01/20 12:50a   16.0   16.1   16.0    85   13.5   0.0   ---   0.00   0.0   ---   16.0   16.1   16.1  1002.4  0.00   0.0   0.016   0.000   25.8    40   11.2   25.3   7.58 1.1531    66.7     0    2      0.0   10 
24/01/20  1:00a   15.9   16.0   15.9    85   13.4   0.0   ---   0.00   0.0   ---   15.9   16.0   16.0  1002.5  0.00   0.0   0.017   0.000   25.6    40   11.0   25.1   7.59 1.1542    66.7     0    2      0.0   10 
24/01/20  1:10a   15.8   15.9   15.8    85   13.3   0.0   ---   0.00   0.0   ---   15.8   15.9   15.9  1002.5  0.00   0.0   0.017   0.000   25.6    41   11.3   25.1   7.75 1.1541    66.7     0    2      0.0   10 
24/01/20  1:20a   15.8   15.8   15.8    86   13.5   0.0   ---   0.00   0.0   ---   15.8   15.9   15.9  1002.5  0.00   0.0   0.017   0.000   25.3    41   11.1   24.9   7.75 1.1552    66.7     0    2      0.0   10 
24/01/20  1:30a   15.7   15.8   15.7    86   13.4   0.0   ---   0.00   0.0   ---   15.7   15.8   15.8  1002.5  0.00   0.0   0.018   0.000   25.3    41   11.1   24.9   7.75 1.1552    66.7     0    2      0.0   10 
24/01/20  1:40a   15.7   15.7   15.7    86   13.4   0.0   ---   0.00   0.0   ---   15.7   15.8   15.8  1002.5  0.00   0.0   0.018   0.000   25.2    41   11.0   24.8   7.75 1.1558    66.7     0    2      0.0   10 
24/01/20  1:50a   15.7   15.7   15.7    86   13.3   0.0   ---   0.00   0.0   ---   15.7   15.8   15.8  1002.3  0.00   0.0   0.019   0.000   25.2    41   11.0   24.7   7.75 1.1558    66.7     0    2      0.0   10 
24/01/20  2:00a   15.7   15.7   15.7    86   13.4   0.0   ---   0.00   0.0   ---   15.7   15.8   15.8  1002.4  0.00   0.0   0.018   0.000   25.2    41   11.0   24.7   7.75 1.1559    66.7     0    2      0.0   10 
24/01/20  2:10a   15.8   15.8   15.7    85   13.3   0.0   ---   0.00   0.0   ---   15.8   15.9   15.9  1002.4  0.00   0.0   0.017   0.000   25.1    41   10.9   24.7   7.75 1.1565    66.7     0    2      0.0   10 
24/01/20  2:20a   15.8   15.8   15.8    85   13.3   0.0   ---   0.00   0.0   ---   15.8   15.9   15.9  1002.6  0.00   0.0   0.017   0.000   24.9    42   11.1   24.6   7.91 1.1568    66.7     0    2      0.0   10 
24/01/20  2:30a   15.7   15.8   15.7    84   13.0   0.0   ---   0.00   0.0   ---   15.7   15.8   15.8  1002.9  0.00   0.0   0.018   0.000   24.7    42   10.9   24.3   7.92 1.1582    66.7     0    2      0.0   10 
24/01/20  2:40a   15.7   15.7   15.7    83   12.8   0.0   ---   0.00   0.0   ---   15.7   15.7   15.7  1002.9  0.00   0.0   0.019   0.000   24.7    42   10.9   24.3   7.92 1.1582    66.7     0    2      0.0   10 
24/01/20  2:50a   15.7   15.7   15.7    82   12.6   0.0   ---   0.00   0.0   ---   15.7   15.7   15.7  1003.3  0.00   0.0   0.019   0.000   24.7    42   10.9   24.3   7.92 1.1590    66.7     0    2      0.0   10 
24/01/20  3:00a   15.6   15.7   15.6    81   12.3   0.0   ---   0.00   0.0   ---   15.6   15.5   15.5  1003.3  0.00   0.0   0.019   0.000   24.6    42   10.8   24.2   7.93 1.1595    66.7     0    2      0.0   10 
24/01/20  3:10a   15.6   15.6   15.6    81   12.3   0.0   ---   0.00   0.0   ---   15.6   15.5   15.5  1003.3  0.00   0.0   0.019   0.000   24.6    42   10.8   24.2   7.93 1.1595    66.7     0    2      0.0   10 
24/01/20  3:20a   15.5   15.6   15.5    81   12.3   0.0   ---   0.00   0.0   ---   15.5   15.4   15.4  1003.3  0.00   0.0   0.020   0.000   24.4    42   10.7   24.1   7.93 1.1600    66.7     0    2      0.0   10 
24/01/20  3:30a   15.5   15.6   15.5    81   12.3   0.0   ---   0.00   0.0   ---   15.5   15.4   15.4  1003.4  0.00   0.0   0.020   0.000   24.4    42   10.7   24.1   7.93 1.1602    66.7     0    2      0.0   10 
24/01/20  3:40a   15.5   15.6   15.5    81   12.3   0.0   ---   0.00   0.0   ---   15.5   15.4   15.4  1003.4  0.00   0.0   0.020   0.000   24.3    42   10.6   23.9   7.93 1.1607    66.7     0    2      0.0   10 
24/01/20  3:50a   15.5   15.5   15.5    81   12.3   0.0   ---   0.00   0.0   ---   15.5   15.4   15.4  1003.6  0.00   0.0   0.020   0.000   24.3    42   10.5   23.9   7.94 1.1612    66.7     0    2      0.0   10 
24/01/20  4:00a   15.4   15.5   15.4    81   12.1   0.0   ---   0.00   0.0   ---   15.4   15.3   15.3  1003.4  0.00   0.0   0.020   0.000   24.3    42   10.5   23.9   7.94 1.1609    66.7     0    2      0.0   10 
24/01/20  4:10a   15.4   15.4   15.4    81   12.1   0.0   ---   0.00   0.0   ---   15.4   15.3   15.3  1003.4  0.00   0.0   0.020   0.000   24.2    42   10.4   23.8   7.94 1.1615    66.7     0    2      0.0   10 
24/01/20  4:20a   15.3   15.4   15.3    82   12.3   0.0   ---   0.00   0.0   ---   15.3   15.3   15.3  1003.5  0.00   0.0   0.021   0.000   24.1    42   10.3   23.7   7.94 1.1621    66.7     0    2      0.0   10 
24/01/20  4:30a   15.2   15.3   15.2    82   12.2   0.0   ---   0.00   0.0   ---   15.2   15.2   15.2  1003.9  0.00   0.0   0.022   0.000   23.9    42   10.2   23.6   7.95 1.1632    66.7     0    2      0.0   10 
24/01/20  4:40a   15.2   15.2   15.2    83   12.4   0.0   ---   0.00   0.0   ---   15.2   15.2   15.2  1003.9  0.00   0.0   0.022   0.000   23.9    43   10.5   23.6   8.05 1.1631    66.7     0    2      0.0   10 
24/01/20  4:50a   15.2   15.2   15.2    83   12.3   0.0   ---   0.00   0.0   ---   15.2   15.1   15.1  1003.9  0.00   0.0   0.022   0.000   23.9    43   10.5   23.6   8.05 1.1631    66.7     0    2      0.0   10 
24/01/20  5:00a   15.2   15.2   15.2    83   12.3   0.0   ---   0.00   0.0   ---   15.2   15.1   15.1  1004.0  0.00   0.0   0.022   0.000   23.8    43   10.4   23.5   8.06 1.1637    66.7     0    2      0.0   10 
24/01/20  5:10a   15.1   15.2   15.1    84   12.4   0.0   ---   0.00   0.0   ---   15.1   15.1   15.1  1004.0  0.00   0.0   0.023   0.000   23.7    43   10.3   23.3   8.07 1.1642    66.7     0    2      0.0   10 
24/01/20  5:20a   15.0   15.1   15.0    84   12.3   0.0   ---   0.00   0.0   ---   15.0   15.0   15.0  1004.5  0.00   0.0   0.023   0.000   23.6    43   10.2   23.2   8.07 1.1654    66.7     0    2      0.0   10 
24/01/20  5:30a   15.0   15.0   15.0    84   12.3   0.0   ---   0.00   0.0   ---   15.0   15.0   15.0  1004.7  0.00   0.0   0.023   0.000   23.6    43   10.2   23.2   8.07 1.1656    66.7     0    2      0.0   10 
24/01/20  5:40a   14.9   15.0   14.9    84   12.2   0.0   ---   0.00   0.0   ---   14.9   14.8   14.8  1004.7  0.00   0.0   0.024   0.000   23.5    44   10.5   23.2   8.26 1.1655    66.7     0    2      0.0   10 
24/01/20  5:50a   14.8   14.9   14.8    85   12.3   0.0   ---   0.00   0.0   ---   14.8   14.8   14.8  1004.9  0.00   0.0   0.024   0.000   23.4    44   10.4   23.1   8.27 1.1663    66.7     0    2      0.0   10 
24/01/20  6:00a   14.7   14.8   14.7    85   12.2   0.0   ---   0.00   0.0   ---   14.7   14.7   14.7  1005.2  0.00   0.0   0.025   0.000   23.3    44   10.3   22.9   8.27 1.1672    66.7     0    2      0.0   10 
24/01/20  6:10a   14.7   14.7   14.7    85   12.2   0.0   ---   0.00   0.0   ---   14.7   14.7   14.7  1005.2  0.00   0.0   0.025   0.000   23.2    44   10.2   22.7   8.28 1.1677    66.7     0    2      0.0   10 
24/01/20  6:20a   14.7   14.7   14.7    85   12.2   0.0   ---   0.00   0.0   ---   14.7   14.6   14.6  1005.7  0.00   0.0   0.025   0.000   23.2    44   10.2   22.7   8.28 1.1683    66.7     0    2      0.0   10 
24/01/20  6:30a   14.7   14.7   14.7    86   12.3   0.0   ---   0.00   0.0   ---   14.7   14.7   14.7  1006.0  0.00   0.0   0.025   0.000   23.1    44   10.2   22.7   8.28 1.1689    66.7     0    2      0.0   10 
24/01/20  6:40a   14.7   14.7   14.7    86   12.4   0.0   ---   0.00   0.0   ---   14.7   14.7   14.7  1006.0  0.00   0.0   0.025   0.000   23.0    45   10.4   22.6   8.45 1.1691    66.7     0    2      0.0   10 
24/01/20  6:50a   14.8   14.9   14.7    86   12.5   0.0   ---   0.00   0.0   ---   14.8   14.8   14.8  1006.3  0.00   0.0   0.024   0.000   23.0    45   10.4   22.6   8.45 1.1695    66.7     0    2      0.0   10 
24/01/20  7:00a   15.0   15.0   14.9    86   12.7   0.0   ---   0.00   0.0   ---   15.0   15.0   15.0  1006.6  0.00   0.0   0.023   0.000   22.9    45   10.3   22.4   8.45 1.1704    66.7     0    2      0.0   10 
24/01/20  7:10a   15.1   15.1   15.0    86   12.7   0.0   ---   0.00   0.0   ---   15.1   15.1   15.1  1006.6  0.00   0.0   0.023   0.000   23.1    45   10.5   22.7   8.45 1.1693    66.7     0    2      0.0   10 
24/01/20  7:20a    ---    ---    ---    86    ---   0.0   ---   0.00   0.0   ---    ---    ---    ---  1007.2  0.00   0.0     ---     ---   23.2    46   10.9   22.8   8.58 1.1694    66.7     0    2      0.0   10 
24/01/20  7:30a   15.6   15.6   15.6    86   13.2   0.0   ---   0.00   0.0   ---   15.6   15.6   15.6  1007.6  0.00   0.0   0.019   0.000   23.5    45   10.9   23.2   8.45 1.1685    66.7     0    2      0.0   10 
24/01/20  7:40a   15.9   15.9   15.7    85   13.4   0.0   ---   0.00   0.0   ---   15.9   16.0   16.0  1007.6  0.00   0.0   0.017   0.000   23.6    45   10.9   23.3   8.45 1.1683    66.7     0    2      0.0   10 
24/01/20  7:50a   16.3   16.3   15.9    84   13.6   0.0   ---   0.00   0.0   ---   16.3   16.4   16.4  1007.6  0.00   0.0   0.014   0.000   23.6    45   10.9   23.3   8.45 1.1683    66.7     0    2      0.0   10 
24/01/20  8:00a   16.5   16.5   16.3    83   13.6   0.0   ---   0.00   0.0   ---   16.5   16.6   16.6  1007.9  0.00   0.0   0.013   0.000   23.6    45   10.9   23.3   8.45 1.1686    66.7     0    2      0.0   10 
24/01/20  8:10a   16.9   16.9   16.5    82   13.8   0.0   ---   0.00   0.0   ---   16.9   17.1   17.1  1007.9  0.00   0.0   0.010   0.000   23.6    45   10.9   23.3   8.45 1.1686    66.7     0    2      0.0   10 
24/01/20  8:20a   17.3   17.3   16.9    81   14.0   0.0   ---   0.00   0.0   ---   17.3   17.6   17.6  1008.1  0.00   0.0   0.007   0.000   23.7    45   11.0   23.4   8.45 1.1684    66.7     0    2      0.0   10 
24/01/20  8:30a   17.2   17.3   17.2    78   13.4   0.0   ---   0.00   0.0   ---   17.2   17.3   17.3  1008.3  0.00   0.0   0.008   0.000   23.8    45   11.1   23.6   8.45 1.1681    66.7     0    2      0.0   10 
24/01/20  8:40a   17.7   17.7   17.2    77   13.6   0.0   ---   0.00   0.0   ---   17.7   17.8   17.8  1008.3  0.00   0.0   0.005   0.000   23.8    45   11.1   23.6   8.45 1.1681    66.7     0    2      0.0   10 
24/01/20  8:50a   18.0   18.0   17.7    75   13.5   0.0   ---   0.00   0.0   ---   18.0   18.1   18.1  1008.2  0.00   0.0   0.002   0.000   23.9    44   10.9   23.7   8.25 1.1678    66.7     0    2      0.0   10 
24/01/20  9:00a   18.8   18.8   18.0    75   14.3   0.0   ---   0.00   0.0   ---   18.8   19.1   19.1  1008.1  0.00   0.0   0.000   0.003   23.9    45   11.2   23.7   8.45 1.1672    66.7     0    2      0.0   10 
24/01/20  9:10a   19.4   19.4   18.8    71   14.0   0.0   ---   0.00   0.0   ---   19.4   19.6   19.6  1008.1  0.00   0.0   0.000   0.007   23.9    45   11.3   23.8   8.45 1.1670    66.7     0    2      0.0   10 
24/01/20  9:20a   19.8   19.8   19.4    69   14.0   0.0   ---   0.00   0.0   ---   19.8   20.1   20.1  1008.3  0.00   0.0   0.000   0.010   24.1    44   11.0   23.8   8.24 1.1671    66.7     0    2      0.0   10 
24/01/20  9:30a   20.6   20.6   19.8    60   12.5   0.0   ---   0.00   0.0   ---   20.6   20.2   20.2  1008.1  0.00   0.0   0.000   0.015   24.2    44   11.1   23.9   8.24 1.1662    66.7     0    2      0.0   10 
24/01/20  9:40a   21.1   21.1   20.6    58   12.5   0.0   ---   0.00   0.0   ---   21.1   20.5   20.5  1008.1  0.00   0.0   0.000   0.019   24.3    43   10.9   24.0   8.05 1.1658    66.7     0    2      0.0   10 
24/01/20  9:50a   21.8   21.8   21.1    54   12.1   0.0   ---   0.00   0.0   ---   21.8   21.2   21.2  1008.0  0.00   0.0   0.000   0.024   24.4    43   11.0   24.1   8.05 1.1652    66.7     0    2      0.0   10 
24/01/20 10:00a   22.4   22.4   21.8    55   13.0   0.0   ---   0.00   0.0   ---   22.4   22.3   22.3  1007.9  0.00   0.0   0.000   0.029   24.6    43   11.1   24.2   8.05 1.1645    66.7     0    2      0.0   10 
24/01/20 10:10a   22.3   22.6   22.3    51   11.7   0.0   ---   0.00   0.0   ---   22.3   21.9   21.9  1007.9  0.00   0.0   0.000   0.028   24.7    42   10.9   24.3   7.92 1.1643    66.7     0    2      0.0   10 
24/01/20 10:20a   22.7   22.7   22.3    50   11.7   0.0   ---   0.00   0.0   ---   22.7   22.3   22.3  1008.0  0.00   0.0   0.000   0.030   24.7    42   10.9   24.3   7.92 1.1642    66.7     0    2      0.0   10 
24/01/20 10:30a   22.8   22.9   22.7    47   10.9   0.0   ---   0.00   0.0   ---   22.8   22.4   22.4  1008.1  0.00   0.0   0.000   0.031   24.8    42   11.0   24.4   7.92 1.1638    66.7     0    2      0.0   10 
24/01/20 10:40a   23.2   23.2   22.8    48   11.6   0.0   ---   0.00   0.0   ---   23.2   22.9   22.9  1008.1  0.00   0.0   0.000   0.034   24.9    41   10.8   24.6   7.75 1.1637    66.7     0    2      0.0   10 
24/01/20 10:50a   23.5   23.5   23.2    44   10.5   0.0   ---   0.00   0.0   ---   23.5   23.2   23.2  1007.9  0.00   0.0   0.000   0.036   25.1    41   10.9   24.7   7.75 1.1628    66.7     0    2      0.0   10 
24/01/20 11:00a   23.8   23.8   23.5    44   10.8   0.0   ---   0.00   0.0   ---   23.8   23.5   23.5  1008.0  0.00   0.0   0.000   0.038   25.1    41   10.9   24.7   7.75 1.1630    66.7     0    2      0.0   10 
24/01/20 11:10a   24.0   24.0   23.8    45   11.3   0.0   ---   0.00   0.0   ---   24.0   23.8   23.8  1008.0  0.00   0.0   0.000   0.039   25.2    41   11.0   24.7   7.75 1.1625    66.7     0    2      0.0   10 
24/01/20 11:20a   24.7   24.7   24.0    41   10.5   0.0   ---   0.00   0.0   ---   24.7   24.2   24.2  1008.1  0.00   0.0   0.000   0.044   25.2    41   11.0   24.8   7.75 1.1623    66.7     0    2      0.0   10 
24/01/20 11:30a   25.4   25.4   24.7    40   10.8   0.0   ---   0.00   0.0   ---   25.4   24.9   24.9  1008.0  0.00   0.0   0.000   0.049   25.3    40   10.8   24.8   7.60 1.1620    66.7     0    2      0.0   10 
24/01/20 11:40a   26.2   26.2   25.4    35    9.5   0.0   ---   0.00   0.0   ---   26.2   25.5   25.5  1008.0  0.00   0.0   0.000   0.054   25.4    40   10.9   24.9   7.59 1.1615    66.7     0    2      0.0   10 
24/01/20 11:50a   27.2   27.2   26.2    30    8.1   0.0   ---   0.00   0.0   ---   27.2   26.1   26.1  1007.7  0.00   0.0   0.000   0.062   25.4    40   10.9   24.9   7.59 1.1611    66.7     0    2      0.0   10 
24/01/20 12:00p   27.6   27.6   27.2    31    9.0   0.0   ---   0.00   0.0   ---   27.6   26.6   26.6  1007.5  0.00   0.0   0.000   0.064   25.6    40   11.0   25.1   7.59 1.1603    66.7     0    2      0.0   10 
24/01/20 12:10p   28.1   28.1   27.6    28    7.8   0.0   ---   0.00   0.0   ---   28.1   26.8   26.8  1007.5  0.00   0.0   0.000   0.068   25.6    40   11.0   25.1   7.59 1.1600    66.7     0    2      0.0   10 
24/01/20 12:20p   28.4   28.4   28.1    27    7.6   0.0   ---   0.00   0.0   ---   28.4   27.1   27.1  1007.3  0.00   0.0   0.000   0.070   25.7    39   10.7   25.2   7.48 1.1597    66.7     0    2      0.0   10 
24/01/20 12:30p   28.4   28.4   28.2    28    8.1   0.0   ---   0.00   0.0   ---   28.4   27.2   27.2  1007.2  0.00   0.0   0.000   0.070   25.8    38   10.4   25.3   7.28 1.1594    66.7     0    2      0.0   10 
24/01/20 12:40p   28.7   28.7   28.4    28    8.4   0.0   ---   0.00   0.0   ---   28.7   27.6   27.6  1007.2  0.00   0.0   0.000   0.072   25.9    38   10.5   25.4   7.28 1.1589    66.7     0    2      0.0   10 
24/01/20 12:50p   29.2   29.2   28.8    26    7.7   0.0   ---   0.00   0.0   ---   29.2   27.9   27.9  1007.0  0.00   0.0   0.000   0.076   26.1    38   10.6   25.5   7.27 1.1582    66.7     0    2      0.0   10 
24/01/20  1:00p   29.1   29.4   29.1    28    8.7   0.0   ---   0.00   0.0   ---   29.1   27.9   27.9  1007.1  0.00   0.0   0.000   0.075   26.2    37   10.3   25.6   7.17 1.1582    66.7     0    2      0.0   10 
24/01/20  1:10p   28.9   29.1   28.9    26    7.5   0.0   ---   0.00   0.0   ---   28.9   27.7   27.7  1007.1  0.00   0.0   0.000   0.074   26.3    37   10.4   25.7   7.16 1.1577    66.7     0    2      0.0   10 
24/01/20  1:20p   28.9   29.0   28.9    24    6.3   0.0   ---   0.00   0.0   ---   28.9   27.5   27.5  1007.2  0.00   0.0   0.000   0.074   26.4    37   10.6   25.8   7.16 1.1570    66.7     0    2      0.0   10 
24/01/20  1:30p   29.0   29.0   28.8    25    7.0   0.0   ---   0.00   0.0   ---   29.0   27.6   27.6  1007.0  0.00   0.0   0.000   0.074   26.6    36   10.3   25.8   6.95 1.1566    66.7     0    2      0.0   10 
24/01/20  1:40p   28.7   29.1   28.7    26    7.3   0.0   ---   0.00   0.0   ---   28.7   27.4   27.4  1007.0  0.00   0.0   0.000   0.072   26.7    36   10.4   25.9   6.95 1.1560    66.7     0    2      0.0   10 
24/01/20  1:50p   28.9   28.9   28.7    25    6.9   0.0   ---   0.00   0.0   ---   28.9   27.6   27.6  1006.9  0.00   0.0   0.000   0.074   26.8    36   10.5   26.0   6.94 1.1555    66.7     0    2      0.0   10 
24/01/20  2:00p   29.2   29.2   28.9    24    6.6   0.0   ---   0.00   0.0   ---   29.2   27.7   27.7  1007.0  0.00   0.0   0.000   0.076   26.9    35   10.1   26.1   6.83 1.1555    66.7     0    2      0.0   10 
24/01/20  2:10p   28.8   29.2   28.8    25    6.8   0.0   ---   0.00   0.0   ---   28.8   27.4   27.4  1007.0  0.00   0.0   0.000   0.073   27.0    35   10.2   26.2   6.83 1.1550    66.7     0    2      0.0   10 
24/01/20  2:20p   28.9   28.9   28.8    24    6.3   0.0   ---   0.00   0.0   ---   28.9   27.5   27.5  1007.0  0.00   0.0   0.000   0.074   27.1    35   10.3   26.2   6.82 1.1547    66.7     0    2      0.0   10 
24/01/20  2:30p   29.4   29.4   28.9    23    6.1   0.0   ---   0.00   0.0   ---   29.4   27.9   27.9  1006.9  0.00   0.0   0.000   0.077   27.3    34   10.0   26.4   6.61 1.1540    66.7     0    2      0.0   10 
24/01/20  2:40p   29.7   29.7   29.4    23    6.3   0.0   ---   0.00   0.0   ---   29.7   28.1   28.1  1006.9  0.00   0.0   0.000   0.079   27.4    33    9.7   26.4   6.50 1.1539    66.7     0    2      0.0   10 
24/01/20  2:50p   29.8   29.9   29.7    22    5.8   0.0   ---   0.00   0.0   ---   29.8   28.1   28.1  1006.7  0.00   0.0   0.000   0.079   27.5    33    9.8   26.6   6.49 1.1531    66.7     0    2      0.0   10 
24/01/20  3:00p   29.1   29.8   29.1    21    4.5   0.0   ---   0.00   0.0   ---   29.1   27.4   27.4  1006.8  0.00   0.0   0.000   0.075   27.6    32    9.4   26.7   6.32 1.1531    66.7     0    2      0.0   10 
24/01/20  3:10p   28.9   29.1   28.9    22    5.1   0.0   ---   0.00   0.0   ---   28.9   27.4   27.4  1006.8  0.00   0.0   0.000   0.074   27.7    32    9.5   26.8   6.31 1.1526    66.7     0    2      0.0   10 
24/01/20  3:20p   29.2   29.2   28.9    21    4.6   0.0   ---   0.00   0.0   ---   29.2   27.6   27.6  1006.6  0.00   0.0   0.000   0.076   27.8    31    9.1   26.8   6.15 1.1523    66.7     0    2      0.0   10 
24/01/20  3:30p   29.4   29.4   29.2    21    4.8   0.0   ---   0.00   0.0   ---   29.4   27.7   27.7  1006.6  0.00   0.0   0.000   0.077   27.8    31    9.1   26.8   6.15 1.1522    66.7     0    2      0.0   10 
24/01/20  3:40p   29.0   29.4   29.0    20    3.8   0.0   ---   0.00   0.0   ---   29.0   27.3   27.3  1006.6  0.00   0.0   0.000   0.074   28.0    30    8.8   26.9   6.05 1.1519    66.7     0    2      0.0   10 
24/01/20  3:50p   29.3   29.3   29.0    20    4.0   0.0   ---   0.00   0.0   ---   29.3   27.6   27.6  1006.7  0.00   0.0   0.000   0.076   28.1    29    8.4   26.9   5.85 1.1520    66.7     0    2      0.0   10 
24/01/20  4:00p   29.3   29.6   29.3    19    3.3   0.0   ---   0.00   0.0   ---   29.3   27.6   27.6  1006.4  0.00   0.0   0.000   0.076   28.2    29    8.5   27.1   5.85 1.1511    66.7     0    2      0.0   10 
24/01/20  4:10p   29.6   29.6   29.3    19    3.5   0.0   ---   0.00   0.0   ---   29.6   27.8   27.8  1006.4  0.00   0.0   0.000   0.078   28.3    29    8.6   27.2   5.85 1.1506    66.7     0    2      0.0   10 
24/01/20  4:20p   28.9   29.6   28.9    19    3.0   0.0   ---   0.00   0.0   ---   28.9   27.2   27.2  1006.6  0.00   0.0   0.000   0.074   28.3    28    8.1   27.1   5.69 1.1513    66.7     0    2      0.0   10 
24/01/20  4:30p   29.0   29.0   28.9    18    2.3   0.0   ---   0.00   0.0   ---   29.0   27.3   27.3  1006.7  0.00   0.0   0.000   0.074   28.4    28    8.2   27.2   5.69 1.1509    66.7     0    2      0.0   10 
24/01/20  4:40p   28.9   28.9   28.7    18    2.2   0.0   ---   0.00   0.0   ---   28.9   27.2   27.2  1006.7  0.00   0.0   0.000   0.074   28.6    28    8.3   27.3   5.68 1.1504    66.7     0    2      0.0   10 
24/01/20  4:50p   28.9   29.1   28.9    17    1.4   0.0   ---   0.00   0.0   ---   28.9   27.2   27.2  1006.5  0.00   0.0   0.000   0.074   28.7    27    7.8   27.4   5.55 1.1502    66.7     0    2      0.0   10 
24/01/20  5:00p   28.3   28.9   28.3    18    1.7   0.0   ---   0.00   0.0   ---   28.3   26.5   26.5  1006.6  0.00   0.0   0.000   0.069   29.0    27    8.1   27.8   5.55 1.1488    66.7     0    2      0.0   10 
24/01/20  5:10p   27.7   28.3   27.7    18    1.2   0.0   ---   0.00   0.0   ---   27.7   25.9   25.9  1006.6  0.00   0.0   0.000   0.065   29.4    27    8.5   28.2   5.55 1.1468    66.7     0    2      0.0   10 
24/01/20  5:20p   27.7   27.7   27.6    17    0.4   0.0   ---   0.00   0.0   ---   27.7   25.8   25.8  1006.8  0.00   0.0   0.000   0.065   30.1    26    8.5   28.8   5.35 1.1444    66.7     0    2      0.0   10 
24/01/20  5:30p   28.2   28.2   27.7    18    1.6   0.0   ---   0.00   0.0   ---   28.2   26.4   26.4  1006.8  0.00   0.0   0.000   0.068   30.6    25    8.3   29.1   5.21 1.1429    66.7     0    2      0.0   10 
24/01/20  5:40p   28.5   28.5   28.2    17    1.1   0.0   ---   0.00   0.0   ---   28.5   26.7   26.7  1006.8  0.00   0.0   0.000   0.071   30.8    24    7.9   29.1   5.00 1.1424    66.7     0    2      0.0   10 
24/01/20  5:50p   28.2   28.5   28.2    16   -0.0   0.0   ---   0.00   0.0   ---   28.2   26.3   26.3  1006.8  0.00   0.0   0.000   0.068   30.9    23    7.3   29.1   4.85 1.1424    66.7     0    2      0.0   10 
24/01/20  6:00p   27.5   28.2   27.5    16   -0.6   0.0   ---   0.00   0.0   ---   27.5   25.6   25.6  1006.8  0.00   0.0   0.000   0.064   31.0    22    6.8   29.2   4.65 1.1425    66.7     0    2      0.0   10 
24/01/20  6:10p   27.4   27.5   27.4    17    0.2   0.0   ---   0.00   0.0   ---   27.4   25.5   25.5  1006.8  0.00   0.0   0.000   0.063   31.2    22    6.9   29.3   4.65 1.1417    66.7     0    2      0.0   10 
24/01/20  6:20p   27.3   27.5   27.3    15   -1.6   0.0   ---   0.00   0.0   ---   27.3   25.4   25.4  1006.7  0.00   0.0   0.000   0.062   31.2    22    6.9   29.3   4.65 1.1416    66.7     0    2      0.0   10 
24/01/20  6:30p   27.0   27.3   27.0   ---    ---   0.0   ---   0.00   0.0   ---   27.0    ---    ---  1006.9  0.00   0.0   0.000   0.060   31.0    21    6.1   29.1   4.55 1.1431    66.7     0    2      0.0   10 
24/01/20  6:40p   26.5   27.0   26.5    18    0.2   0.0   ---   0.00   0.0   ---   26.5   24.7   24.7  1006.9  0.00   0.0   0.000   0.057   30.8    21    5.9   28.9   4.55 1.1440    66.7     0    2      0.0   10 
24/01/20  6:50p   26.4   26.5   26.4    18    0.1   0.0   ---   0.00   0.0   ---   26.4   24.7   24.7  1006.8  0.00   0.0   0.000   0.056   30.6    21    5.7   28.8   4.55 1.1450    66.7     0    2      0.0   10 
24/01/20  7:00p   25.9   26.4   25.9    19    0.5   0.0   ---   0.00   0.0   ---   25.9   24.4   24.4  1006.8  0.00   0.0   0.000   0.053   30.3    21    5.6   28.6   4.55 1.1459    66.7     0    2      0.0   10 
24/01/20  7:10p    ---    ---    ---    19    ---   0.0   ---   0.00   0.0   ---    ---    ---    ---  1006.8  0.00   0.0     ---     ---   30.3    20    4.9   28.5   4.35 1.1464    66.7     0    2      0.0   10 
24/01/20  7:20p   25.1   25.4   25.1   ---    ---   0.0   ---   0.00   0.0   ---   25.1    ---    ---  1007.0  0.00   0.0   0.000   0.047   30.2    20    4.8   28.4   4.35 1.1471    66.7     0    2      0.0   10 
24/01/20  7:30p   24.6   24.7   24.6    21    0.8   0.0   ---   0.00   0.0   ---   24.6   23.6   23.6  1007.5  0.00   0.0   0.000   0.043   30.2    19    4.0   28.4   4.18 1.1481    66.7     0    2      0.0   10 
24/01/20  7:40p   24.2   24.6   24.2    21    0.4   0.0   ---   0.00   0.0   ---   24.2   23.0   23.0  1007.5  0.00   0.0   0.000   0.041   30.1    19    3.9   28.3   4.17 1.1486    66.7     0    2      0.0   10 
24/01/20  7:50p   23.8   24.2   23.8    22    0.8   0.0   ---   0.00   0.0   ---   23.8   22.4   22.4  1007.7  0.00   0.0   0.000   0.038   29.9    19    3.8   28.1   4.17 1.1498    66.7     0    2      0.0   10 
24/01/20  8:00p   23.6   23.8   23.6    22    0.6   0.0   ---   0.00   0.0   ---   23.6   22.2   22.2  1008.0  0.00   0.0   0.000   0.037   29.9    20    4.5   28.1   4.35 1.1497    66.7     0    2      0.0   10 
24/01/20  8:10p    ---    ---    ---   ---    ---   0.0   ---   0.00   0.0   ---    ---    ---    ---  1008.0  0.00   0.0     ---     ---   29.9    20    4.5   28.1   4.35 1.1497    66.7     0    2      0.0   10 
24/01/20  8:20p   22.3   22.8   22.3    25    1.3   0.0   ---   0.00   0.0   ---   22.3   20.5   20.5  1008.1  0.00   0.0   0.000   0.028   29.8    20    4.4   28.0   4.35 1.1503    66.7     0    2      0.0   10 
24/01/20  8:30p   21.7   22.3   21.7    25    0.8   0.0   ---   0.00   0.0   ---   21.7   19.6   19.6  1008.7  0.00   0.0   0.000   0.023   29.8    20    4.4   28.0   4.35 1.1509    66.7     0    2      0.0   10 
24/01/20  8:40p   21.7   21.7   21.7    25    0.8   0.0   ---   0.00   0.0   ---   21.7   19.6   19.6  1008.7  0.00   0.0   0.000   0.023   29.8    21    5.1   28.1   4.55 1.1505    66.7     0    2      0.0   10 
24/01/20  8:50p   21.2   21.2   21.2    25    0.4   0.0   ---   0.00   0.0   ---   21.2   19.0   19.0  1009.0  0.00   0.0   0.000   0.020   29.7    21    5.0   27.9   4.55 1.1513    66.7     0    2      0.0   10 
24/01/20  9:00p   20.8   20.9   20.8    25    0.1   0.0   ---   0.00   0.0   ---   20.8   18.6   18.6  1009.1  0.00   0.0   0.000   0.017   29.6    21    4.9   27.8   4.55 1.1519    66.7     0    2      0.0   10 
24/01/20  9:10p   20.7   20.8   20.7    25   -0.1   0.0   ---   0.00   0.0   ---   20.7   18.3   18.3  1009.1  0.00   0.0   0.000   0.016   29.3    21    4.7   27.7   4.56 1.1529    66.7     0    2      0.0   10 
24/01/20  9:20p   20.7   20.7   20.7    25   -0.1   0.0   ---   0.00   0.0   ---   20.7   18.3   18.3  1009.1  0.00   0.0   0.000   0.016   29.2    21    4.6   27.6   4.57 1.1534    66.7     0    2      0.0   10 
24/01/20  9:30p   20.4   20.4   20.4    25   -0.3   0.0   ---   0.00   0.0   ---   20.4   18.1   18.1  1009.4  0.00   0.0   0.000   0.014   29.1    21    4.5   27.4   4.57 1.1542    66.7     0    2      0.0   10 
24/01/20  9:40p   20.1   20.2   20.1    28    1.0   0.0   ---   0.00   0.0   ---   20.1   18.0   18.0  1009.4  0.00   0.0   0.000   0.012   28.9    21    4.4   27.3   4.59 1.1551    66.7     0    2      0.0   10 
24/01/20  9:50p   19.6   20.1   19.6    31    2.0   0.0   ---   0.00   0.0   ---   19.6   17.6   17.6  1009.7  0.00   0.0   0.000   0.008   28.6    21    4.1   26.9   4.61 1.1570    66.7     0    2      0.0   10 
24/01/20 10:00p   18.9   19.6   18.9    34    2.7   0.0   ---   0.00   0.0   ---   18.9   17.2   17.2  1010.1  0.00   0.0   0.000   0.004   28.3    21    3.9   26.7   4.63 1.1584    66.7     0    2      0.0   10 
24/01/20 10:10p   18.7   18.9   18.7    37    3.7   0.0   ---   0.00   0.0   ---   18.7   17.1   17.1  1010.1  0.00   0.0   0.000   0.002   28.1    21    3.7   26.5   4.65 1.1594    66.7     0    2      0.0   10 
24/01/20 10:20p   18.7   18.7   18.7    40    4.8   0.0   ---   0.00   0.0   ---   18.7   17.2   17.2  1010.4  0.00   0.0   0.000   0.002   27.9    22    4.2   26.3   4.76 1.1603    66.7     0    2      0.0   10 
24/01/20 10:30p    ---    ---    ---   ---    ---   0.0   ---   0.00   0.0   ---    ---    ---    ---  1010.6  0.00   0.0     ---     ---   27.9    23    4.8   26.4   4.96 1.1601    66.7     0    2      0.0   10 
24/01/20 10:40p    ---    ---    ---   ---    ---   0.0   ---   0.00   0.0   ---    ---    ---    ---  1010.6  0.00   0.0     ---     ---   27.8    23    4.8   26.3   4.97 1.1604    66.7     0    2      0.0   10 
24/01/20 10:50p    ---    ---    ---   ---    ---   0.0   ---   0.00   0.0   ---    ---    ---    ---  1010.1  0.00   0.0     ---     ---   27.7    25    5.9   26.3   5.31 1.1594    66.7     0    2      0.0   10 
24/01/20 11:00p    ---    ---    ---   ---    ---   0.0   ---   0.00   0.0   ---    ---    ---    ---  1010.2  0.00   0.0     ---     ---   27.6    26    6.4   26.3   5.42 1.1595    66.7     0    2      0.0   10 
24/01/20 11:10p    ---    ---    ---   ---    ---   0.0   ---   0.00   0.0   ---    ---    ---    ---  1010.2  0.00   0.0     ---     ---   27.5    28    7.4   26.3   5.72 1.1592    66.7     0    2      0.0   10 
24/01/20 11:20p   18.5   18.6   18.5    74   13.8   0.0   ---   0.00   0.0   ---   18.5   18.7   18.7  1010.4  0.00   0.0   0.000   0.001   27.4    29    7.8   26.2   5.85 1.1595    66.7     0    2      0.0   10 
24/01/20 11:30p   18.3   18.5   18.3    75   13.8   0.0   ---   0.00   0.0   ---   18.3   18.4   18.4  1010.4  0.00   0.0   0.000   0.000   27.3    31    8.7   26.2   6.15 1.1593    66.7     0    2      0.0   10 
24/01/20 11:40p   18.2   18.3   18.2    75   13.7   0.0   ---   0.00   0.0   ---   18.2   18.4   18.4  1010.4  0.00   0.0   0.001   0.000   27.2    32    9.0   26.2   6.33 1.1594    66.7     0    2      0.0   10 
24/01/20 11:50p   18.1   18.2   18.1    76   13.8   0.0   ---   0.00   0.0   ---   18.1   18.3   18.3  1010.5  0.00   0.0   0.002   0.000   27.1    33    9.4   26.1   6.52 1.1595    66.7     0    2      0.0   10 
25/01/20 12:00a   18.0   18.1   18.0    77   13.9   0.0   ---   0.00   0.0   ---   18.0   18.2   18.2  1010.5  0.00   0.0   0.002   0.000   27.0    34    9.8   26.1   6.63 1.1594    66.7     0    2      0.0   10 
25/01/20 12:10a   18.0   18.0   18.0    77   13.9   0.0   ---   0.00   0.0   ---   18.0   18.2   18.2  1010.5  0.00   0.0   0.002   0.000   26.9    35   10.1   26.1   6.83 1.1595    66.7     0    2      0.0   10 
25/01/20 12:20a   17.8   17.9   17.8    77   13.7   0.0   ---   0.00   0.0   ---   17.8   18.0   18.0  1010.2  0.00   0.0   0.003   0.000   26.8    36   10.5   26.0   6.94 1.1593    66.7     0    2      0.0   10 
25/01/20 12:30a   17.8   17.8   17.8    78   13.9   0.0   ---   0.00   0.0   ---   17.8   17.9   17.9  1010.3  0.00   0.0   0.004   0.000   26.7    36   10.4   25.9   6.95 1.1599    66.7     0    2      0.0   10 
25/01/20 12:40a   17.7   17.8   17.7    78   13.8   0.0   ---   0.00   0.0   ---   17.7   17.8   17.8  1010.3  0.00   0.0   0.005   0.000   26.4    37   10.6   25.8   7.16 1.1605    66.7     0    2      0.0   10 
25/01/20 12:50a   17.6   17.7   17.6    78   13.7   0.0   ---   0.00   0.0   ---   17.6   17.7   17.7  1010.3  0.00   0.0   0.005   0.000   26.4    37   10.6   25.8   7.16 1.1606    66.7     0    2      0.0   10 
25/01/20  1:00a   17.5   17.6   17.5    79   13.8   0.0   ---   0.00   0.0   ---   17.5   17.7   17.7  1010.2  0.00   0.0   0.006   0.000   26.3    38   10.9   25.7   7.26 1.1606    66.7     0    2      0.0   10 
25/01/20  1:10a   17.3   17.5   17.3    79   13.7   0.0   ---   0.00   0.0   ---   17.3   17.5   17.5  1010.2  0.00   0.0   0.007   0.000   26.2    38   10.7   25.6   7.27 1.1614    66.7     0    2      0.0   10 
25/01/20  1:20a   17.1   17.3   17.1    79   13.4   0.0   ---   0.00   0.0   ---   17.1   17.2   17.2  1010.2  0.00   0.0   0.008   0.000   26.2    38   10.7   25.6   7.27 1.1614    66.7     0    2      0.0   10 
25/01/20  1:30a   16.9   17.1   16.9    80   13.5   0.0   ---   0.00   0.0   ---   16.9   17.1   17.1  1010.3  0.00   0.0   0.010   0.000   25.9    39   10.9   25.4   7.48 1.1621    66.7     0    2      0.0   10 
25/01/20  1:40a   16.8   16.9   16.8    80   13.3   0.0   ---   0.00   0.0   ---   16.8   16.9   16.9  1010.3  0.00   0.0   0.011   0.000   25.8    39   10.8   25.3   7.48 1.1627    66.7     0    2      0.0   10 
25/01/20  1:50a   17.1   17.1   16.8    81   13.8   0.0   ---   0.00   0.0   ---   17.1   17.2   17.2  1010.4  0.00   0.0   0.009   0.000   25.8    39   10.8   25.3   7.48 1.1628    66.7     0    2      0.0   10 
25/01/20  2:00a   17.2   17.2   17.1    81   13.9   0.0   ---   0.00   0.0   ---   17.2   17.4   17.4  1010.2  0.00   0.0   0.008   0.000   25.7    40   11.1   25.2   7.58 1.1627    66.7     0    2      0.0   10 
25/01/20  2:10a   17.2   17.2   17.2    81   13.9   0.0   ---   0.00   0.0   ---   17.2   17.4   17.4  1010.2  0.00   0.0   0.008   0.000   25.7    40   11.1   25.2   7.58 1.1627    66.7     0    2      0.0   10 
25/01/20  2:20a   17.1   17.2   17.1    81   13.8   0.0   ---   0.00   0.0   ---   17.1   17.3   17.3  1010.3  0.00   0.0   0.008   0.000   25.6    41   11.3   25.1   7.75 1.1632    66.7     0    2      0.0   10 
25/01/20  2:30a   16.9   17.1   16.9    81   13.6   0.0   ---   0.00   0.0   ---   16.9   17.1   17.1  1010.1  0.00   0.0   0.010   0.000   25.4    41   11.2   25.0   7.75 1.1635    66.7     0    2      0.0   10 
25/01/20  2:40a   16.7   16.9   16.7    81   13.4   0.0   ---   0.00   0.0   ---   16.7   16.8   16.8  1010.1  0.00   0.0   0.011   0.000   25.4    41   11.2   25.0   7.75 1.1635    66.7     0    2      0.0   10 
25/01/20  2:50a   16.7   16.8   16.7    82   13.6   0.0   ---   0.00   0.0   ---   16.7   16.9   16.9  1010.0  0.00   0.0   0.011   0.000   25.3    41   11.1   24.9   7.75 1.1640    66.7     0    2      0.0   10 
25/01/20  3:00a   16.6   16.7   16.6    81   13.3   0.0   ---   0.00   0.0   ---   16.6   16.7   16.7  1010.0  0.00   0.0   0.012   0.000   25.2    41   11.0   24.8   7.75 1.1645    66.7     0    2      0.0   10 
25/01/20  3:10a   16.5   16.6   16.5    82   13.4   0.0   ---   0.00   0.0   ---   16.5   16.6   16.6  1010.0  0.00   0.0   0.013   0.000   25.2    42   11.3   24.8   7.90 1.1644    66.7     0    2      0.0   10 
25/01/20  3:20a   16.6   16.6   16.5    82   13.5   0.0   ---   0.00   0.0   ---   16.6   16.7   16.7  1009.9  0.00   0.0   0.012   0.000   25.2    42   11.3   24.8   7.90 1.1643    66.7     0    2      0.0   10 
25/01/20  3:30a   16.7   16.7   16.7    81   13.4   0.0   ---   0.00   0.0   ---   16.7   16.8   16.8  1009.8  0.00   0.0   0.011   0.000   25.2    42   11.3   24.8   7.90 1.1641    66.7     0    2      0.0   10 
25/01/20  3:40a   16.7   16.7   16.7    81   13.4   0.0   ---   0.00   0.0   ---   16.7   16.8   16.8  1009.8  0.00   0.0   0.011   0.000   25.1    42   11.2   24.7   7.91 1.1646    66.7     0    2      0.0   10 
25/01/20  3:50a   16.8   16.8   16.7    81   13.5   0.0   ---   0.00   0.0   ---   16.8   16.9   16.9  1009.5  0.00   0.0   0.011   0.000   24.9    42   11.1   24.6   7.91 1.1649    66.7     0    2      0.0   10 
25/01/20  4:00a   16.9   16.9   16.8    81   13.6   0.0   ---   0.00   0.0   ---   16.9   17.1   17.1  1009.3  0.00   0.0   0.010   0.000   24.9    42   11.1   24.6   7.91 1.1647    66.7     0    2      0.0   10 
25/01/20  4:10a   16.9   16.9   16.9    81   13.6   0.0   ---   0.00   0.0   ---   16.9   17.1   17.1  1009.3  0.00   0.0   0.010   0.000   24.8    42   11.0   24.4   7.92 1.1652    66.7     0    2      0.0   10 
25/01/20  4:20a   17.1   17.1   16.9    82   14.0   0.0   ---   0.00   0.0   ---   17.1   17.2   17.2  1009.5  0.00   0.0   0.009   0.000   24.7    43   11.3   24.4   8.05 1.1656    66.7     0    2      0.0   10 
25/01/20  4:30a   17.2   17.2   17.1    82   14.1   0.0   ---   0.00   0.0   ---   17.2   17.4   17.4  1009.3  0.00   0.0   0.008   0.000   24.7    43   11.3   24.4   8.05 1.1654    66.7     0    2      0.0   10 
25/01/20  4:40a   17.3   17.3   17.2    81   14.0   0.0   ---   0.00   0.0   ---   17.3   17.6   17.6  1009.3  0.00   0.0   0.007   0.000   24.7    43   11.2   24.3   8.05 1.1656    66.7     0    2      0.0   10 
25/01/20  4:50a   17.4   17.4   17.3    81   14.1   0.0   ---   0.00   0.0   ---   17.4   17.6   17.6  1009.3  0.00   0.0   0.007   0.000   24.7    44   11.6   24.4   8.22 1.1652    66.7     0    2      0.0   10 
25/01/20  5:00a   17.4   17.4   17.4    80   13.9   0.0   ---   0.00   0.0   ---   17.4   17.6   17.6  1009.4  0.00   0.0   0.007   0.000   24.7    44   11.6   24.4   8.22 1.1653    66.7     0    2      0.0   10 
25/01/20  5:10a   17.4   17.4   17.4    79   13.7   0.0   ---   0.00   0.0   ---   17.4   17.6   17.6  1009.4  0.00   0.0   0.007   0.000   24.6    44   11.5   24.3   8.23 1.1659    66.7     0    2      0.0   10 
25/01/20  5:20a   17.5   17.5   17.4    79   13.8   0.0   ---   0.00   0.0   ---   17.5   17.7   17.7  1009.7  0.00   0.0   0.006   0.000   24.6    44   11.5   24.3   8.23 1.1662    66.7     0    2      0.0   10 
25/01/20  5:30a   17.7   17.7   17.5    79   14.0   0.0   ---   0.00   0.0   ---   17.7   17.9   17.9  1009.6  0.00   0.0   0.005   0.000   24.4    44   11.4   24.2   8.23 1.1667    66.7     0    2      0.0   10 
25/01/20  5:40a   17.8   17.8   17.7    78   13.9   0.0   ---   0.00   0.0   ---   17.8   17.9   17.9  1009.6  0.00   0.0   0.004   0.000   24.3    44   11.3   24.1   8.23 1.1673    66.7     0    2      0.0   10 
25/01/20  5:50a   17.8   17.8   17.8    78   13.9   0.0   ---   0.00   0.0   ---   17.8   18.1   18.1  1009.6  0.00   0.0   0.003   0.000   24.3    44   11.3   24.1   8.23 1.1673    66.7     0    2      0.0   10 
25/01/20  6:00a   17.9   17.9   17.8    78   14.1   0.0   ---   0.00   0.0   ---   17.9   18.2   18.2  1009.8  0.00   0.0   0.003   0.000   24.3    45   11.6   24.1   8.43 1.1671    66.7     0    2      0.0   10 
25/01/20  6:10a   18.0   18.0   17.9    78   14.1   0.0   ---   0.00   0.0   ---   18.0   18.2   18.2  1009.8  0.00   0.0   0.002   0.000   24.3    45   11.6   24.1   8.43 1.1671    66.7     0    2      0.0   10 
25/01/20  6:20a   18.1   18.1   18.0    78   14.2   0.0   ---   0.00   0.0   ---   18.1   18.4   18.4  1010.1  0.00   0.0   0.002   0.000   24.3    45   11.6   24.1   8.43 1.1675    66.7     0    2      0.0   10 
25/01/20  6:30a   18.2   18.2   18.1    77   14.1   0.0   ---   0.00   0.0   ---   18.2   18.4   18.4  1010.2  0.00   0.0   0.001   0.000   24.3    46   12.0   24.2   8.53 1.1672    66.7     0    2      0.0   10 
25/01/20  6:40a   18.2   18.2   18.2    76   13.9   0.0   ---   0.00   0.0   ---   18.2   18.4   18.4  1010.2  0.00   0.0   0.001   0.000   24.3    46   11.9   24.1   8.54 1.1675    66.7     0    2      0.0   10 
25/01/20  6:50a   18.3   18.3   18.2    76   14.0   0.0   ---   0.00   0.0   ---   18.3   18.5   18.5  1010.3  0.00   0.0   0.000   0.000   24.3    46   11.9   24.1   8.54 1.1676    66.7     0    2      0.0   10 
25/01/20  7:00a   18.4   18.4   18.3    76   14.1   0.0   ---   0.00   0.0   ---   18.4   18.6   18.6  1010.4  0.00   0.0   0.000   0.000   24.3    46   11.9   24.1   8.54 1.1678    66.7     0    2      0.0   10 
25/01/20  7:10a   18.6   18.6   18.4    76   14.2   0.0   ---   0.00   0.0   ---   18.6   18.8   18.8  1010.4  0.00   0.0   0.000   0.002   24.3    46   11.9   24.1   8.54 1.1678    66.7     0    2      0.0   10 
25/01/20  7:20a   18.7   18.7   18.6    75   14.1   0.0   ---   0.00   0.0   ---   18.7   18.9   18.9  1010.8  0.00   0.0   0.000   0.002   24.3    46   12.0   24.2   8.53 1.1679    66.7     0    2      0.0   10 
25/01/20  7:30a   18.8   18.8   18.7    74   14.1   0.0   ---   0.00   0.0   ---   18.8   19.1   19.1  1010.9  0.00   0.0   0.000   0.003   24.3    47   12.3   24.2   8.73 1.1677    66.7     0    2      0.0   10 
25/01/20  7:40a   18.9   18.9   18.8    74   14.2   0.0   ---   0.00   0.0   ---   18.9   19.2   19.2  1010.9  0.00   0.0   0.000   0.004   24.3    47   12.3   24.2   8.73 1.1677    66.7     0    2      0.0   10 
25/01/20  7:50a   19.1   19.1   19.0    74   14.4   0.0   ---   0.00   0.0   ---   19.1   19.4   19.4  1011.0  0.00   0.0   0.000   0.005   24.7    47   12.6   24.5   8.72 1.1661    66.7     0    2      0.0   10 
25/01/20  8:00a   19.4   19.4   19.2    74   14.7   0.0   ---   0.00   0.0   ---   19.4   19.8   19.8  1011.0  0.00   0.0   0.000   0.008   24.7    47   12.6   24.6   8.72 1.1659    66.7     0    2      0.0   10 
25/01/20  8:10a   19.6   19.6   19.6    72   14.4   0.0   ---   0.00   0.0   ---   19.6   19.9   19.9  1011.0  0.00   0.0   0.000   0.008   24.9    47   12.9   24.7   8.71 1.1648    66.7     0    2      0.0   10 
25/01/20  8:20a   19.8   19.8   19.8    72   14.6   0.0   ---   0.00   0.0   ---   19.8   20.2   20.2  1011.5  0.00   0.0   0.000   0.010   25.2    46   12.7   24.9   8.50 1.1647    66.7     0    2      0.0   10 
25/01/20  8:30a   20.5   20.5   20.3    72   15.3   0.0   ---   0.00   0.0   ---   20.5   20.8   20.8  1011.4  0.00   0.0   0.000   0.015   25.3    46   12.9   25.1   8.50 1.1637    66.7     0    2      0.0   10 
25/01/20  8:40a   20.9   20.9   20.8    72   15.7   0.0   ---   0.00   0.0   ---   20.9   21.2   21.2  1011.4  0.00   0.0   0.000   0.018   25.4    46   13.0   25.3   8.49 1.1632    66.7     0    2      0.0   10 
25/01/20  8:50a   21.3   21.3   21.3    72   16.1   0.0   ---   0.00   0.0   ---   21.3   21.6   21.6  1011.2  0.00   0.0   0.000   0.021   25.6    45   12.8   25.4   8.39 1.1625    66.7     0    2      0.0   10 
25/01/20  9:00a   22.3   22.3   21.3    67   15.9   0.0   ---   0.00   0.0   ---   22.3   22.6   22.6  1011.0  0.00   0.0   0.000   0.027   25.7    45   12.9   25.5   8.38 1.1618    66.7     0    2      0.0   10 
25/01/20  9:10a   23.1   23.1   22.6    67   16.6   0.0   ---   0.00   0.0   ---   23.1   23.8   23.8  1011.0  0.00   0.0   0.000   0.033   25.9    45   13.1   25.8   8.38 1.1607    66.7     0    2      0.0   10 
25/01/20  9:20a   23.5   23.5   23.1    62   15.8   0.0   ---   0.00   0.0   ---   23.5   24.0   24.0  1011.1  0.00   0.0   0.000   0.036   25.9    44   12.8   25.7   8.18 1.1612    66.7     0    2      0.0   10